sensor_id;sensor_type;location;lat;lon;timestamp;pressure;altitude;pressure_sealevel;temperature;humidity
35553;BME280;21656;46.054;13.614;2023-02-16T00:00:17;101955.63;;;2.59;100.00
35553;BME280;21656;46.054;13.614;2023-02-16T00:02:43;101945.06;;;2.56;100.00
35553;BME280;21656;46.054;13.614;2023-02-16T00:07:46;101952.72;;;2.31;100.00
35553;BME280;21656;46.054;13.614;2023-02-16T00:10:12;101947.69;;;2.17;100.00
35553;BME280;21656;46.054;13.614;2023-02-16T00:12:37;101951.44;;;2.07;100.00
35553;BME280;21656;46.054;13.614;2023-02-16T00:15:21;101954.78;;;2.19;100.00
35553;BME280;21656;46.054;13.614;2023-02-16T00:17:47;101953.00;;;2.17;100.00
35553;BME280;21656;46.054;13.614;2023-02-16T00:20:14;101954.72;;;2.22;100.00
35553;BME280;21656;46.054;13.614;2023-02-16T00:22:39;101957.50;;;2.15;100.00
35553;BME280;21656;46.054;13.614;2023-02-16T00:25:05;101945.25;;;2.08;100.00
35553;BME280;21656;46.054;13.614;2023-02-16T00:27:31;101951.44;;;2.07;100.00
35553;BME280;21656;46.054;13.614;2023-02-16T00:29:56;101950.56;;;2.08;100.00
35553;BME280;21656;46.054;13.614;2023-02-16T00:32:21;101945.47;;;1.98;100.00
35553;BME280;21656;46.054;13.614;2023-02-16T00:34:49;101950.88;;;1.93;100.00
35553;BME280;21656;46.054;13.614;2023-02-16T00:37:15;101950.91;;;1.90;100.00
35553;BME280;21656;46.054;13.614;2023-02-16T00:39:41;101949.97;;;1.94;100.00
35553;BME280;21656;46.054;13.614;2023-02-16T00:42:17;101946.59;;;1.86;100.00
35553;BME280;21656;46.054;13.614;2023-02-16T00:44:54;101951.06;;;1.82;100.00
35553;BME280;21656;46.054;13.614;2023-02-16T00:47:33;101948.63;;;1.73;100.00
35553;BME280;21656;46.054;13.614;2023-02-16T00:50:03;101953.88;;;1.74;100.00
35553;BME280;21656;46.054;13.614;2023-02-16T00:52:38;101952.13;;;1.75;100.00
35553;BME280;21656;46.054;13.614;2023-02-16T00:55:11;101951.06;;;1.82;100.00
35553;BME280;21656;46.054;13.614;2023-02-16T01:00:18;101951.50;;;1.62;100.00
35553;BME280;21656;46.054;13.614;2023-02-16T01:02:47;101953.00;;;1.76;100.00
35553;BME280;21656;46.054;13.614;2023-02-16T01:05:13;101952.84;;;1.83;100.00
35553;BME280;21656;46.054;13.614;2023-02-16T01:07:38;101952.22;;;1.69;100.00
35553;BME280;21656;46.054;13.614;2023-02-16T01:10:22;101960.44;;;1.57;100.00
35553;BME280;21656;46.054;13.614;2023-02-16T01:13:07;101963.09;;;1.57;100.00
35553;BME280;21656;46.054;13.614;2023-02-16T01:15:33;101963.00;;;1.61;100.00
35553;BME280;21656;46.054;13.614;2023-02-16T01:17:59;101963.00;;;1.61;100.00
35553;BME280;21656;46.054;13.614;2023-02-16T01:20:25;101964.13;;;1.49;100.00
35553;BME280;21656;46.054;13.614;2023-02-16T01:22:51;101968.31;;;1.61;100.00
35553;BME280;21656;46.054;13.614;2023-02-16T01:25:16;101961.25;;;1.60;100.00
35553;BME280;21656;46.054;13.614;2023-02-16T01:27:42;101954.31;;;1.53;100.00
35553;BME280;21656;46.054;13.614;2023-02-16T01:30:14;101961.56;;;1.42;100.00
35553;BME280;21656;46.054;13.614;2023-02-16T01:32:40;101966.94;;;1.40;100.00
35553;BME280;21656;46.054;13.614;2023-02-16T01:35:06;101961.69;;;1.36;100.00
35553;BME280;21656;46.054;13.614;2023-02-16T01:37:31;101958.97;;;1.40;100.00
35553;BME280;21656;46.054;13.614;2023-02-16T01:39:56;101956.19;;;1.48;100.00
35553;BME280;21656;46.054;13.614;2023-02-16T01:42:39;101947.47;;;1.40;100.00
35553;BME280;21656;46.054;13.614;2023-02-16T01:45:15;101944.63;;;1.49;100.00
35553;BME280;21656;46.054;13.614;2023-02-16T01:47:55;101947.47;;;1.40;100.00
35553;BME280;21656;46.054;13.614;2023-02-16T01:50:29;101943.13;;;1.36;100.00
35553;BME280;21656;46.054;13.614;2023-02-16T07:26:01;102023.09;;;1.16;100.00
35553;BME280;21656;46.054;13.614;2023-02-16T07:28:29;102026.34;;;1.35;100.00
35553;BME280;21656;46.054;13.614;2023-02-16T07:30:55;102020.13;;;1.36;100.00
35553;BME280;21656;46.054;13.614;2023-02-16T07:33:25;102024.22;;;1.54;100.00
35553;BME280;21656;46.054;13.614;2023-02-16T07:35:51;102019.50;;;1.71;100.00
35553;BME280;21656;46.054;13.614;2023-02-16T07:38:24;102026.22;;;1.90;100.00
35553;BME280;21656;46.054;13.614;2023-02-16T07:40:50;102029.38;;;2.09;100.00
35553;BME280;21656;46.054;13.614;2023-02-16T07:43:41;102037.97;;;2.24;100.00
35553;BME280;21656;46.054;13.614;2023-02-16T07:46:09;102031.38;;;2.42;100.00
35553;BME280;21656;46.054;13.614;2023-02-16T07:48:43;102025.75;;;2.57;100.00
35553;BME280;21656;46.054;13.614;2023-02-16T07:51:31;102033.47;;;2.69;100.00
35553;BME280;21656;46.054;13.614;2023-02-16T07:54:02;102028.91;;;2.74;100.00
35553;BME280;21656;46.054;13.614;2023-02-16T07:56:42;102034.91;;;2.84;100.00
35553;BME280;21656;46.054;13.614;2023-02-16T07:59:07;102037.38;;;2.92;100.00
35553;BME280;21656;46.054;13.614;2023-02-16T08:01:44;102040.91;;;2.92;100.00
35553;BME280;21656;46.054;13.614;2023-02-16T08:04:24;102040.63;;;3.04;100.00
35553;BME280;21656;46.054;13.614;2023-02-16T08:07:00;102034.06;;;3.19;100.00
35553;BME280;21656;46.054;13.614;2023-02-16T08:09:25;102037.34;;;3.29;100.00
35553;BME280;21656;46.054;13.614;2023-02-16T08:11:51;102045.88;;;3.43;100.00
35553;BME280;21656;46.054;13.614;2023-02-16T08:14:25;102044.75;;;3.54;100.00
35553;BME280;21656;46.054;13.614;2023-02-16T08:16:50;102044.81;;;3.52;100.00
35553;BME280;21656;46.054;13.614;2023-02-16T08:19:22;102046.13;;;3.70;100.00
35553;BME280;21656;46.054;13.614;2023-02-16T08:21:48;102036.66;;;3.91;100.00
35553;BME280;21656;46.054;13.614;2023-02-16T08:24:18;102039.44;;;4.19;100.00
35553;BME280;21656;46.054;13.614;2023-02-16T08:26:59;102036.00;;;4.45;100.00
35553;BME280;21656;46.054;13.614;2023-02-16T08:29:35;102040.94;;;4.59;100.00
35553;BME280;21656;46.054;13.614;2023-02-16T08:32:01;102030.50;;;4.51;100.00
35553;BME280;21656;46.054;13.614;2023-02-16T08:34:36;102044.19;;;4.39;100.00
35553;BME280;21656;46.054;13.614;2023-02-16T08:37:03;102035.72;;;4.56;100.00
35553;BME280;21656;46.054;13.614;2023-02-16T08:39:30;102036.13;;;4.72;100.00
35553;BME280;21656;46.054;13.614;2023-02-16T08:42:00;102043.53;;;4.90;100.00
35553;BME280;21656;46.054;13.614;2023-02-16T08:44:29;102046.09;;;5.21;100.00
35553;BME280;21656;46.054;13.614;2023-02-16T08:46:58;102043.50;;;5.47;100.00
35553;BME280;21656;46.054;13.614;2023-02-16T08:49:25;102037.47;;;5.67;100.00
35553;BME280;21656;46.054;13.614;2023-02-16T08:51:58;102034.19;;;5.85;100.00
35553;BME280;21656;46.054;13.614;2023-02-16T08:54:26;102027.78;;;5.89;100.00
35553;BME280;21656;46.054;13.614;2023-02-16T08:56:52;102031.00;;;6.00;100.00
35553;BME280;21656;46.054;13.614;2023-02-16T08:59:20;102032.00;;;6.21;100.00
35553;BME280;21656;46.054;13.614;2023-02-16T09:01:47;102032.06;;;6.20;100.00
35553;BME280;21656;46.054;13.614;2023-02-16T09:04:13;102037.25;;;6.24;100.00
35553;BME280;21656;46.054;13.614;2023-02-16T09:06:41;102031.06;;;6.22;100.00
35553;BME280;21656;46.054;13.614;2023-02-16T09:09:07;102023.13;;;6.21;100.00
35553;BME280;21656;46.054;13.614;2023-02-16T09:11:34;102027.38;;;6.26;99.44
35553;BME280;21656;46.054;13.614;2023-02-16T09:14:02;102026.81;;;6.17;99.52
35553;BME280;21656;46.054;13.614;2023-02-16T09:16:32;102025.06;;;6.41;100.00
35553;BME280;21656;46.054;13.614;2023-02-16T09:19:00;102023.16;;;6.43;99.43
35553;BME280;21656;46.054;13.614;2023-02-16T09:21:26;102021.31;;;6.68;98.65
35553;BME280;21656;46.054;13.614;2023-02-16T09:23:54;102018.47;;;6.95;97.84
35553;BME280;21656;46.054;13.614;2023-02-16T09:26:24;102011.25;;;7.19;96.09
35553;BME280;21656;46.054;13.614;2023-02-16T09:28:50;102013.16;;;7.37;92.82
35553;BME280;21656;46.054;13.614;2023-02-16T09:31:20;102020.47;;;7.54;91.88
35553;BME280;21656;46.054;13.614;2023-02-16T09:33:55;102022.47;;;7.49;86.97
35553;BME280;21656;46.054;13.614;2023-02-16T09:36:22;102017.91;;;7.31;87.68
35553;BME280;21656;46.054;13.614;2023-02-16T09:38:47;102016.53;;;7.43;89.84
35553;BME280;21656;46.054;13.614;2023-02-16T09:46:35;101997.56;;;8.09;82.91
35553;BME280;21656;46.054;13.614;2023-02-16T09:49:12;101989.25;;;8.34;82.02
35553;BME280;21656;46.054;13.614;2023-02-16T09:51:44;102001.22;;;8.27;79.22
35553;BME280;21656;46.054;13.614;2023-02-16T09:54:22;101998.97;;;8.36;78.69
35553;BME280;21656;46.054;13.614;2023-02-16T09:57:20;102002.56;;;8.56;76.52
35553;BME280;21656;46.054;13.614;2023-02-16T10:08:43;102002.47;;;9.14;74.14
35553;BME280;21656;46.054;13.614;2023-02-16T10:12:28;101992.34;;;9.54;74.26
35553;BME280;21656;46.054;13.614;2023-02-16T10:14:44;101994.34;;;9.85;71.38
35553;BME280;21656;46.054;13.614;2023-02-16T10:20:15;101994.56;;;9.98;66.17
35553;BME280;21656;46.054;13.614;2023-02-16T10:25:53;101990.94;;;10.15;64.69
35553;BME280;21656;46.054;13.614;2023-02-16T10:28:43;101978.25;;;10.34;64.03
35553;BME280;21656;46.054;13.614;2023-02-16T10:35:11;101972.63;;;10.71;62.28
35553;BME280;21656;46.054;13.614;2023-02-16T10:37:33;101975.94;;;10.76;63.09
35553;BME280;21656;46.054;13.614;2023-02-16T10:43:18;101969.03;;;11.18;63.07
35553;BME280;21656;46.054;13.614;2023-02-16T10:45:53;101962.28;;;11.41;62.91
35553;BME280;21656;46.054;13.614;2023-02-16T10:48:31;101962.09;;;11.44;63.25
35553;BME280;21656;46.054;13.614;2023-02-16T10:51:12;101959.75;;;11.68;62.75
35553;BME280;21656;46.054;13.614;2023-02-16T10:53:52;101953.75;;;11.93;62.85
35553;BME280;21656;46.054;13.614;2023-02-16T10:56:30;101948.16;;;12.10;62.42
35553;BME280;21656;46.054;13.614;2023-02-16T10:59:13;101947.50;;;12.63;62.27
35553;BME280;21656;46.054;13.614;2023-02-16T11:01:47;101937.28;;;12.95;62.65
35553;BME280;21656;46.054;13.614;2023-02-16T11:04:48;101922.75;;;13.37;62.76
35553;BME280;21656;46.054;13.614;2023-02-16T11:07:25;101927.94;;;13.40;64.52
35553;BME280;21656;46.054;13.614;2023-02-16T11:11:19;101923.94;;;13.59;64.87
35553;BME280;21656;46.054;13.614;2023-02-16T11:13:35;101917.78;;;13.70;66.34
35553;BME280;21656;46.054;13.614;2023-02-16T11:16:18;101908.25;;;13.64;66.99
35553;BME280;21656;46.054;13.614;2023-02-16T11:18:48;101923.63;;;13.51;68.12
35553;BME280;21656;46.054;13.614;2023-02-16T11:21:51;101911.94;;;13.63;67.95
35553;BME280;21656;46.054;13.614;2023-02-16T11:24:52;101905.66;;;13.88;68.44
35553;BME280;21656;46.054;13.614;2023-02-16T11:27:24;101912.78;;;14.15;69.16
35553;BME280;21656;46.054;13.614;2023-02-16T11:29:50;101906.72;;;14.11;68.11
35553;BME280;21656;46.054;13.614;2023-02-16T11:32:43;101904.09;;;14.22;67.97
35553;BME280;21656;46.054;13.614;2023-02-16T11:35:15;101907.22;;;14.29;69.44
35553;BME280;21656;46.054;13.614;2023-02-16T11:37:47;101901.88;;;14.40;68.33
35553;BME280;21656;46.054;13.614;2023-02-16T11:51:09;101876.56;;;14.28;70.68
35553;BME280;21656;46.054;13.614;2023-02-16T11:53:50;101879.66;;;14.35;70.89
35553;BME280;21656;46.054;13.614;2023-02-16T11:57:39;101869.06;;;13.82;73.38
35553;BME280;21656;46.054;13.614;2023-02-16T12:13:25;101860.81;;;13.46;84.12
35553;BME280;21656;46.054;13.614;2023-02-16T12:19:31;101847.81;;;13.76;81.65
35553;BME280;21656;46.054;13.614;2023-02-16T12:31:51;101832.63;;;14.36;76.94
35553;BME280;21656;46.054;13.614;2023-02-16T12:44:19;101830.09;;;14.59;73.62
35553;BME280;21656;46.054;13.614;2023-02-16T12:47:11;101819.75;;;14.64;74.20
35553;BME280;21656;46.054;13.614;2023-02-16T12:50:03;101813.75;;;14.71;74.13
35553;BME280;21656;46.054;13.614;2023-02-16T12:58:43;101799.59;;;14.79;73.54
35553;BME280;21656;46.054;13.614;2023-02-16T13:01:47;101800.31;;;14.70;73.29
35553;BME280;21656;46.054;13.614;2023-02-16T13:04:44;101796.25;;;14.76;72.47
35553;BME280;21656;46.054;13.614;2023-02-16T13:07:44;101790.56;;;14.67;72.61
35553;BME280;21656;46.054;13.614;2023-02-16T13:16:39;101778.78;;;14.80;72.28
35553;BME280;21656;46.054;13.614;2023-02-16T13:19:27;101777.75;;;14.69;72.20
35553;BME280;21656;46.054;13.614;2023-02-16T13:28:27;101771.59;;;14.43;74.41
35553;BME280;21656;46.054;13.614;2023-02-16T13:31:28;101776.94;;;14.32;74.56
35553;BME280;21656;46.054;13.614;2023-02-16T13:37:11;101777.81;;;13.96;79.19
35553;BME280;21656;46.054;13.614;2023-02-16T13:45:10;101791.00;;;13.63;81.15
35553;BME280;21656;46.054;13.614;2023-02-16T13:47:38;101787.00;;;13.56;81.91
35553;BME280;21656;46.054;13.614;2023-02-16T13:53:07;101783.44;;;13.56;82.17
35553;BME280;21656;46.054;13.614;2023-02-16T13:55:38;101775.00;;;13.48;83.45
35553;BME280;21656;46.054;13.614;2023-02-16T14:00:50;101778.78;;;13.32;85.18
35553;BME280;21656;46.054;13.614;2023-02-16T14:06:27;101772.03;;;13.12;86.21
35553;BME280;21656;46.054;13.614;2023-02-16T14:14:40;101759.91;;;12.79;91.22
35553;BME280;21656;46.054;13.614;2023-02-16T14:23:02;101765.50;;;12.76;92.41
35553;BME280;21656;46.054;13.614;2023-02-16T14:25:32;101765.06;;;12.70;93.64
35553;BME280;21656;46.054;13.614;2023-02-16T14:30:57;101764.41;;;12.66;96.85
35553;BME280;21656;46.054;13.614;2023-02-16T14:36:11;101759.66;;;12.70;96.05
35553;BME280;21656;46.054;13.614;2023-02-16T14:38:41;101759.53;;;12.58;96.90
35553;BME280;21656;46.054;13.614;2023-02-16T14:41:31;101759.28;;;12.49;98.42
35553;BME280;21656;46.054;13.614;2023-02-16T14:47:51;101754.78;;;12.35;100.00
35553;BME280;21656;46.054;13.614;2023-02-16T15:01:56;101767.34;;;12.09;100.00
35553;BME280;21656;46.054;13.614;2023-02-16T15:04:37;101754.44;;;12.00;100.00
35553;BME280;21656;46.054;13.614;2023-02-16T15:07:07;101761.38;;;12.04;100.00
35553;BME280;21656;46.054;13.614;2023-02-16T15:09:41;101763.31;;;12.02;100.00
35553;BME280;21656;46.054;13.614;2023-02-16T15:12:17;101756.84;;;12.04;100.00
35553;BME280;21656;46.054;13.614;2023-02-16T15:15:04;101751.94;;;11.97;100.00
35553;BME280;21656;46.054;13.614;2023-02-16T15:17:40;101752.44;;;11.89;100.00
35553;BME280;21656;46.054;13.614;2023-02-16T15:22:59;101761.00;;;11.81;100.00
35553;BME280;21656;46.054;13.614;2023-02-16T15:25:39;101765.25;;;11.85;100.00
35553;BME280;21656;46.054;13.614;2023-02-16T15:28:33;101764.31;;;11.86;100.00
35553;BME280;21656;46.054;13.614;2023-02-16T15:31:17;101758.38;;;11.80;100.00
35553;BME280;21656;46.054;13.614;2023-02-16T15:34:02;101764.19;;;11.74;100.00
35553;BME280;21656;46.054;13.614;2023-02-16T15:36:51;101757.44;;;11.66;100.00
35553;BME280;21656;46.054;13.614;2023-02-16T15:50:48;101763.25;;;11.46;100.00
35553;BME280;21656;46.054;13.614;2023-02-16T16:07:58;101767.31;;;11.24;100.00
35553;BME280;21656;46.054;13.614;2023-02-16T16:24:33;101785.91;;;10.84;100.00
35553;BME280;21656;46.054;13.614;2023-02-16T17:06:16;101808.88;;;10.30;100.00
35553;BME280;21656;46.054;13.614;2023-02-16T17:17:09;101818.31;;;10.21;100.00
35553;BME280;21656;46.054;13.614;2023-02-16T17:20:15;101823.28;;;10.13;100.00
35553;BME280;21656;46.054;13.614;2023-02-16T17:37:10;101840.25;;;9.82;100.00
35553;BME280;21656;46.054;13.614;2023-02-16T17:51:22;101833.53;;;9.57;100.00
35553;BME280;21656;46.054;13.614;2023-02-16T17:57:41;101827.16;;;9.42;100.00
35553;BME280;21656;46.054;13.614;2023-02-16T18:00:48;101825.56;;;9.38;100.00
35553;BME280;21656;46.054;13.614;2023-02-16T18:10:19;101833.66;;;9.21;100.00
35553;BME280;21656;46.054;13.614;2023-02-16T18:16:54;101844.50;;;9.19;100.00
35553;BME280;21656;46.054;13.614;2023-02-16T18:23:44;101845.94;;;9.09;100.00
35553;BME280;21656;46.054;13.614;2023-02-16T18:33:04;101853.66;;;9.15;100.00
35553;BME280;21656;46.054;13.614;2023-02-16T18:40:09;101855.16;;;9.03;100.00
35553;BME280;21656;46.054;13.614;2023-02-16T18:53:29;101863.38;;;8.83;100.00
35553;BME280;21656;46.054;13.614;2023-02-16T18:59:54;101866.22;;;8.80;100.00
35553;BME280;21656;46.054;13.614;2023-02-16T19:03:04;101870.56;;;8.82;100.00
35553;BME280;21656;46.054;13.614;2023-02-16T19:06:47;101859.75;;;8.84;100.00
35553;BME280;21656;46.054;13.614;2023-02-16T19:10:06;101864.56;;;8.77;100.00
35553;BME280;21656;46.054;13.614;2023-02-16T19:16:34;101872.78;;;8.74;100.00
35553;BME280;21656;46.054;13.614;2023-02-16T19:23:31;101873.84;;;8.70;100.00
35553;BME280;21656;46.054;13.614;2023-02-16T19:26:30;101876.53;;;8.70;100.00
35553;BME280;21656;46.054;13.614;2023-02-16T19:39:53;101877.28;;;8.74;100.00
35553;BME280;21656;46.054;13.614;2023-02-16T19:46:21;101880.78;;;8.57;100.00
35553;BME280;21656;46.054;13.614;2023-02-16T19:49:14;101874.34;;;8.61;100.00
35553;BME280;21656;46.054;13.614;2023-02-16T19:52:47;101882.13;;;8.65;100.00
35553;BME280;21656;46.054;13.614;2023-02-16T19:59:55;101883.81;;;8.68;100.00
35553;BME280;21656;46.054;13.614;2023-02-16T20:16:25;101888.72;;;8.41;100.00
35553;BME280;21656;46.054;13.614;2023-02-16T20:19:34;101893.53;;;8.33;100.00
35553;BME280;21656;46.054;13.614;2023-02-16T20:26:30;101890.09;;;8.31;100.00
35553;BME280;21656;46.054;13.614;2023-02-16T20:29:51;101895.03;;;8.21;100.00
35553;BME280;21656;46.054;13.614;2023-02-16T20:32:53;101895.81;;;8.23;100.00
35553;BME280;21656;46.054;13.614;2023-02-16T20:39:59;101892.69;;;8.13;100.00
35553;BME280;21656;46.054;13.614;2023-02-16T20:43:28;101886.03;;;8.03;100.00
35553;BME280;21656;46.054;13.614;2023-02-16T20:50:12;101884.19;;;8.03;100.00
35553;BME280;21656;46.054;13.614;2023-02-16T21:00:17;101889.56;;;8.03;100.00
35553;BME280;21656;46.054;13.614;2023-02-16T21:06:35;101891.16;;;8.08;100.00
35553;BME280;21656;46.054;13.614;2023-02-16T21:09:33;101887.38;;;8.12;100.00
35553;BME280;21656;46.054;13.614;2023-02-16T21:12:56;101886.38;;;8.14;100.00
35553;BME280;21656;46.054;13.614;2023-02-16T21:16:28;101887.97;;;8.18;100.00
35553;BME280;21656;46.054;13.614;2023-02-16T21:19:08;101894.28;;;8.17;100.00
35553;BME280;21656;46.054;13.614;2023-02-16T21:21:47;101880.94;;;8.16;100.00
35553;BME280;21656;46.054;13.614;2023-02-16T21:24:15;101892.59;;;8.15;100.00
35553;BME280;21656;46.054;13.614;2023-02-16T21:26:43;101891.28;;;8.04;100.00
35553;BME280;21656;46.054;13.614;2023-02-16T21:29:13;101895.94;;;8.01;100.00
35553;BME280;21656;46.054;13.614;2023-02-16T21:31:41;101894.28;;;7.98;100.00
35553;BME280;21656;46.054;13.614;2023-02-16T21:34:14;101891.59;;;7.98;100.00
35553;BME280;21656;46.054;13.614;2023-02-16T21:36:43;101893.41;;;7.98;100.00
35553;BME280;21656;46.054;13.614;2023-02-16T21:39:14;101898.19;;;7.91;100.00
35553;BME280;21656;46.054;13.614;2023-02-16T21:41:55;101898.13;;;7.93;100.00
35553;BME280;21656;46.054;13.614;2023-02-16T21:44:45;101892.59;;;7.96;100.00
35553;BME280;21656;46.054;13.614;2023-02-16T21:48:11;101888.03;;;7.98;100.00
